createdAt,value
2019-01-25T00:01:59.230Z,32.33
2019-01-25T00:04:03.713Z,32.10
2019-01-25T00:06:08.830Z,23.83
2019-01-25T00:08:13.230Z,40.30
2019-01-25T00:10:17.654Z,22.40
2019-01-25T00:12:22.494Z,44.03
2019-01-25T00:14:26.928Z,43.37
2019-01-25T00:16:31.294Z,31.60
2019-01-25T00:18:35.761Z,32.57
2019-01-25T00:20:40.150Z,31.20
2019-01-25T00:22:44.594Z,37.53
2019-01-25T00:24:48.984Z,36.53
2019-01-25T00:26:53.359Z,22.23
2019-01-25T00:28:57.796Z,30.03
2019-01-25T00:31:02.322Z,34.80
2019-01-25T00:33:06.790Z,35.67
2019-01-25T00:35:11.308Z,42.37
2019-01-25T00:37:15.691Z,54.93
2019-01-25T00:39:20.069Z,53.53
2019-01-25T00:41:24.457Z,32.60
2019-01-25T00:43:28.902Z,42.63
2019-01-25T00:45:33.311Z,37.90
2019-01-25T00:47:37.816Z,47.37
2019-01-25T00:49:42.281Z,32.57
2019-01-25T00:51:46.699Z,38.93
2019-01-25T00:53:51.073Z,51.40
2019-01-25T00:55:55.486Z,36.03
2019-01-25T00:57:59.889Z,48.17
2019-01-25T01:00:05.535Z,45.67
2019-01-25T01:02:09.989Z,57.83
2019-01-25T01:04:14.378Z,56.27
2019-01-25T01:06:18.906Z,44.87
2019-01-25T01:08:23.406Z,65.77
2019-01-25T01:10:27.818Z,41.57
2019-01-25T01:12:32.274Z,31.67
2019-01-25T01:14:36.654Z,40.00
2019-01-25T01:16:41.021Z,37.50
2019-01-25T01:18:45.466Z,38.23
2019-01-25T01:20:50.016Z,52.60
2019-01-25T01:22:54.412Z,52.40
2019-01-25T01:24:58.818Z,33.00
2019-01-25T01:27:03.257Z,40.67
2019-01-25T01:29:07.664Z,31.23
2019-01-25T01:31:12.056Z,52.90
2019-01-25T01:33:16.439Z,48.90
2019-01-25T01:35:20.869Z,50.03
2019-01-25T01:37:25.995Z,48.77
2019-01-25T01:39:30.434Z,36.07
2019-01-25T01:41:34.964Z,44.03
2019-01-25T01:43:39.363Z,36.43
2019-01-25T01:45:43.768Z,48.00
2019-01-25T01:47:48.243Z,25.23
2019-01-25T01:49:52.684Z,38.33
2019-01-25T01:51:57.081Z,38.30
2019-01-25T01:54:01.478Z,43.37
2019-01-25T01:56:05.956Z,43.60
2019-01-25T01:58:10.346Z,34.53
2019-01-25T02:00:23.013Z,27.23
2019-01-25T02:02:28.127Z,59.20
2019-01-25T02:04:32.495Z,20.83
2019-01-25T02:06:36.921Z,56.70
2019-01-25T02:08:41.261Z,19.10
2019-01-25T02:10:45.671Z,37.80
2019-01-25T02:12:50.123Z,22.40
2019-01-25T02:14:54.485Z,32.87
2019-01-25T02:16:58.982Z,31.87
2019-01-25T02:19:03.445Z,45.33
2019-01-25T02:21:07.967Z,34.03
2019-01-25T02:23:12.388Z,33.80
2019-01-25T02:25:16.893Z,43.23
2019-01-25T02:27:21.322Z,44.43
2019-01-25T02:29:25.722Z,25.10
2019-01-25T02:31:30.123Z,52.20
2019-01-25T02:33:34.524Z,46.87
2019-01-25T02:35:38.964Z,51.67
2019-01-25T02:37:43.368Z,47.57
2019-01-25T02:39:47.752Z,53.37
2019-01-25T02:41:52.178Z,46.60
2019-01-25T02:43:56.581Z,36.97
2019-01-25T02:46:00.948Z,37.50
2019-01-25T02:48:05.413Z,37.33
2019-01-25T02:50:12.654Z,41.60
2019-01-25T02:52:17.015Z,50.83
2019-01-25T02:54:21.427Z,47.73
2019-01-25T02:56:25.878Z,29.43
2019-01-25T02:58:30.250Z,43.70
2019-01-25T03:00:35.130Z,39.73
2019-01-25T03:02:39.522Z,32.37
2019-01-25T03:04:43.864Z,37.47
2019-01-25T03:06:48.280Z,39.07
2019-01-25T03:08:52.675Z,37.47
2019-01-25T03:10:57.154Z,46.00
2019-01-25T03:13:01.547Z,32.30
2019-01-25T03:15:07.541Z,37.40
2019-01-25T03:17:11.950Z,45.83
2019-01-25T03:19:16.360Z,38.30
2019-01-25T03:21:21.493Z,43.90
2019-01-25T03:23:25.863Z,38.07
2019-01-25T03:25:30.304Z,42.40
2019-01-25T03:27:34.699Z,40.27
2019-01-25T03:29:39.105Z,34.40
2019-01-25T03:31:43.443Z,47.10
2019-01-25T03:33:47.855Z,37.37
2019-01-25T03:35:52.349Z,23.30
2019-01-25T03:37:56.718Z,37.00
2019-01-25T03:40:01.080Z,37.97
2019-01-25T03:42:05.615Z,30.70
2019-01-25T03:44:10.038Z,35.83
2019-01-25T03:46:14.440Z,36.90
2019-01-25T03:48:18.800Z,42.87
2019-01-25T03:50:25.526Z,43.20
2019-01-25T03:52:29.893Z,39.03
2019-01-25T03:54:35.522Z,36.37
2019-01-25T03:56:39.909Z,37.90
2019-01-25T03:58:44.306Z,49.17
2019-01-25T04:00:48.681Z,40.70
2019-01-25T04:02:53.076Z,40.00
2019-01-25T04:04:57.451Z,45.93
2019-01-25T04:07:01.837Z,40.63
2019-01-25T04:09:09.327Z,31.63
2019-01-25T04:11:13.739Z,33.47
2019-01-25T04:13:18.142Z,39.87
2019-01-25T04:15:24.540Z,50.93
2019-01-25T04:17:28.917Z,41.27
2019-01-25T04:19:33.286Z,41.90
2019-01-25T04:21:37.735Z,22.50
2019-01-25T04:23:42.110Z,27.80
2019-01-25T04:25:46.657Z,42.50
2019-01-25T04:27:51.272Z,30.03
2019-01-25T04:29:55.659Z,41.60
2019-01-25T04:32:00.078Z,26.00
2019-01-25T04:34:04.587Z,42.73
2019-01-25T04:36:09.020Z,40.77
2019-01-25T04:38:13.359Z,35.57
2019-01-25T04:40:17.901Z,32.53
2019-01-25T04:42:22.255Z,27.70
2019-01-25T04:44:26.613Z,34.33
2019-01-25T04:46:31.073Z,34.33
2019-01-25T04:48:35.475Z,26.73
2019-01-25T04:50:39.909Z,31.43
2019-01-25T04:52:44.334Z,27.20
2019-01-25T04:54:48.731Z,31.43
2019-01-25T04:56:53.099Z,44.13
2019-01-25T04:58:57.468Z,37.83
2019-01-25T05:01:08.499Z,30.33
2019-01-25T05:03:13.353Z,23.80
2019-01-25T05:05:17.815Z,34.87
2019-01-25T05:07:22.211Z,36.87
2019-01-25T05:09:26.615Z,40.23
2019-01-25T05:11:31.062Z,42.77
2019-01-25T05:13:35.493Z,35.17
2019-01-25T05:15:39.940Z,33.50
2019-01-25T05:17:44.972Z,25.67
2019-01-25T05:19:49.375Z,38.07
2019-01-25T05:21:53.786Z,30.57
2019-01-25T05:23:58.206Z,31.50
2019-01-25T05:26:02.601Z,32.83
2019-01-25T05:28:15.281Z,37.47
2019-01-25T05:30:19.702Z,35.77
2019-01-25T05:32:24.146Z,32.20
2019-01-25T05:34:28.642Z,40.80
2019-01-25T05:36:33.002Z,31.17
2019-01-25T05:38:37.467Z,34.60
2019-01-25T05:40:41.999Z,32.97
2019-01-25T05:42:46.417Z,23.80
2019-01-25T05:44:50.785Z,22.40
2019-01-25T05:46:55.269Z,31.87
2019-01-25T05:48:59.679Z,38.00
2019-01-25T05:51:04.817Z,29.27
2019-01-25T05:53:09.260Z,32.93
2019-01-25T05:55:18.501Z,30.20
2019-01-25T05:57:22.931Z,35.20
2019-01-25T05:59:27.392Z,29.97
2019-01-25T06:01:31.852Z,40.70
2019-01-25T06:03:36.312Z,32.57
2019-01-25T06:05:40.809Z,31.00
2019-01-25T06:07:45.261Z,29.40
2019-01-25T06:09:50.831Z,17.47
2019-01-25T06:11:55.267Z,33.20
2019-01-25T06:13:59.809Z,38.87
2019-01-25T06:16:04.354Z,34.53
2019-01-25T06:18:08.792Z,23.17
2019-01-25T06:20:13.392Z,30.37
2019-01-25T06:22:17.849Z,26.90
2019-01-25T06:24:22.325Z,24.03
2019-01-25T06:26:26.818Z,32.60
2019-01-25T06:28:31.313Z,26.93
2019-01-25T06:30:35.704Z,33.30
2019-01-25T06:32:40.198Z,28.47
2019-01-25T06:34:44.600Z,28.93
2019-01-25T06:36:49.799Z,33.47
2019-01-25T06:38:54.262Z,31.83
2019-01-25T06:40:58.673Z,27.83
2019-01-25T06:43:03.053Z,38.27
2019-01-25T06:45:07.645Z,33.00
2019-01-25T06:47:12.042Z,31.27
2019-01-25T06:49:16.438Z,31.67
2019-01-25T06:51:20.920Z,30.73
2019-01-25T06:53:25.361Z,35.90
2019-01-25T06:55:29.791Z,31.63
2019-01-25T06:57:41.177Z,35.43
2019-01-25T06:59:45.574Z,36.53
2019-01-25T07:02:09.611Z,38.93
2019-01-25T07:04:14.024Z,38.03
2019-01-25T07:06:18.599Z,38.07
2019-01-25T07:08:23.067Z,42.47
2019-01-25T07:10:27.406Z,22.83
2019-01-25T07:12:31.780Z,41.70
2019-01-25T07:14:36.168Z,22.63
2019-01-25T07:16:40.590Z,36.90
2019-01-25T07:18:45.041Z,30.47
2019-01-25T07:20:49.459Z,36.13
2019-01-25T07:22:54.054Z,33.03
2019-01-25T07:24:58.521Z,39.60
2019-01-25T07:27:02.886Z,37.10
2019-01-25T07:29:07.298Z,29.03
2019-01-25T07:31:11.742Z,29.20
2019-01-25T07:33:16.180Z,32.60
2019-01-25T07:35:20.629Z,34.33
2019-01-25T07:37:25.132Z,24.97
2019-01-25T07:39:29.872Z,26.30
2019-01-25T07:41:34.058Z,23.87
2019-01-25T07:43:38.633Z,17.73
2019-01-25T07:45:43.042Z,24.10
2019-01-25T07:47:47.517Z,30.07
2019-01-25T07:49:51.971Z,37.37
2019-01-25T07:51:56.423Z,34.37
2019-01-25T07:54:00.889Z,37.60
2019-01-25T07:56:05.516Z,30.37
2019-01-25T07:58:09.861Z,35.00
2019-01-25T08:00:14.478Z,39.53
2019-01-25T08:02:18.875Z,35.97
2019-01-25T08:04:23.295Z,37.67
2019-01-25T08:06:27.769Z,40.13
2019-01-25T08:08:32.172Z,31.87
2019-01-25T08:10:36.614Z,36.13
2019-01-25T08:12:41.014Z,31.13
2019-01-25T08:14:45.445Z,36.90
2019-01-25T08:16:49.955Z,42.07
2019-01-25T08:18:54.455Z,36.87
2019-01-25T08:20:58.884Z,42.53
2019-01-25T08:23:03.438Z,36.23
2019-01-25T08:25:08.101Z,44.10
2019-01-25T08:27:12.486Z,41.47
2019-01-25T08:29:16.909Z,43.77
2019-01-25T08:31:21.290Z,49.77
2019-01-25T08:33:25.709Z,44.80
2019-01-25T08:35:30.134Z,47.00
2019-01-25T08:37:34.584Z,44.37
2019-01-25T08:39:39.200Z,46.83
2019-01-25T08:41:43.432Z,43.50
2019-01-25T08:43:47.865Z,36.27
2019-01-25T08:45:52.379Z,28.50
2019-01-25T08:47:56.791Z,35.43
2019-01-25T08:50:01.310Z,31.73
2019-01-25T08:52:05.712Z,36.27
2019-01-25T08:54:10.053Z,46.20
2019-01-25T08:56:14.584Z,36.47
2019-01-25T08:58:18.890Z,28.57
2019-01-25T09:00:23.503Z,44.43
2019-01-25T09:02:27.947Z,54.43
2019-01-25T09:04:32.368Z,40.63
2019-01-25T09:06:37.183Z,46.67
2019-01-25T09:08:41.593Z,34.67
2019-01-25T09:10:45.978Z,37.93
2019-01-25T09:12:50.428Z,21.10
2019-01-25T09:14:54.845Z,34.57
2019-01-25T09:16:59.224Z,33.87
2019-01-25T09:19:04.598Z,30.27
2019-01-25T09:21:08.946Z,32.87
2019-01-25T09:23:13.317Z,34.50
2019-01-25T09:25:17.739Z,30.53
2019-01-25T09:27:23.814Z,39.10
2019-01-25T09:29:26.519Z,35.63
2019-01-25T09:31:37.408Z,41.23
2019-01-25T09:33:41.793Z,34.67
2019-01-25T09:35:46.222Z,33.63
2019-01-25T09:37:50.706Z,42.33
2019-01-25T09:39:55.119Z,34.97
2019-01-25T09:41:59.460Z,34.20
2019-01-25T09:44:03.926Z,26.23
2019-01-25T09:46:08.367Z,26.43
2019-01-25T09:48:12.896Z,31.37
2019-01-25T09:50:18.200Z,11.93
2019-01-25T09:52:22.578Z,39.67
2019-01-25T09:54:26.998Z,27.73
2019-01-25T09:56:31.385Z,31.70
2019-01-25T09:58:38.291Z,29.70
2019-01-25T10:00:50.323Z,33.90
2019-01-25T10:02:55.078Z,35.73
2019-01-25T10:04:59.448Z,31.40
2019-01-25T10:07:03.959Z,32.93
2019-01-25T10:09:09.583Z,26.73
2019-01-25T10:11:14.042Z,43.40
2019-01-25T10:13:18.524Z,37.20
2019-01-25T10:15:24.391Z,25.67
2019-01-25T10:17:28.956Z,35.17
2019-01-25T10:19:33.403Z,27.67
2019-01-25T10:21:37.928Z,34.23
2019-01-25T10:23:42.419Z,24.17
2019-01-25T10:25:46.887Z,32.20
2019-01-25T10:27:51.341Z,23.00
2019-01-25T10:29:56.997Z,36.93
2019-01-25T10:32:00.470Z,14.40
2019-01-25T10:34:05.093Z,28.70
2019-01-25T10:36:09.735Z,25.03
2019-01-25T10:38:14.214Z,37.23
2019-01-25T10:40:19.386Z,21.63
2019-01-25T10:42:23.803Z,38.13
2019-01-25T10:44:28.274Z,17.37
2019-01-25T10:46:32.739Z,6.83
2019-01-25T10:48:37.194Z,10.13
2019-01-25T10:50:41.802Z,23.77
2019-01-25T10:52:46.278Z,19.63
2019-01-25T10:54:50.792Z,41.13
2019-01-25T10:56:55.337Z,46.97
2019-01-25T10:58:59.833Z,25.93
2019-01-25T11:01:04.424Z,40.53
2019-01-25T11:03:08.903Z,6.97
2019-01-25T11:05:16.204Z,23.20
2019-01-25T11:07:20.654Z,36.97
2019-01-25T11:09:25.123Z,33.20
2019-01-25T11:11:29.570Z,39.07
2019-01-25T11:13:33.988Z,11.40
2019-01-25T11:15:38.514Z,39.93
2019-01-25T11:17:42.988Z,27.93
2019-01-25T11:19:47.447Z,30.30
2019-01-25T11:21:51.918Z,44.23
2019-01-25T11:23:56.576Z,17.80
2019-01-25T11:26:00.991Z,16.50
2019-01-25T11:28:06.034Z,37.63
2019-01-25T11:30:12.191Z,39.90
2019-01-25T11:32:16.641Z,41.17
2019-01-25T11:34:21.137Z,40.20
2019-01-25T11:36:25.678Z,36.73
2019-01-25T11:38:30.177Z,35.27
2019-01-25T11:40:36.921Z,40.43
2019-01-25T11:42:41.363Z,28.53
2019-01-25T11:44:45.787Z,53.13
2019-01-25T11:46:50.221Z,51.20
2019-01-25T11:48:54.752Z,37.43
2019-01-25T11:50:59.286Z,38.57
2019-01-25T11:53:03.702Z,43.83
2019-01-25T11:55:08.498Z,38.43
2019-01-25T11:57:12.928Z,34.27
2019-01-25T11:59:17.300Z,25.77
2019-01-25T12:01:21.746Z,36.93
2019-01-25T12:03:26.174Z,44.33
2019-01-25T12:05:30.559Z,55.27
2019-01-25T12:07:34.991Z,43.43
2019-01-25T12:09:39.404Z,37.43
2019-01-25T12:11:43.788Z,33.73
2019-01-25T12:13:48.367Z,30.47
2019-01-25T12:15:52.805Z,55.93
2019-01-25T12:17:57.277Z,21.90
2019-01-25T12:20:01.848Z,41.10
2019-01-25T12:22:06.326Z,34.83
2019-01-25T12:24:11.320Z,23.47
2019-01-25T12:26:15.717Z,44.77
2019-01-25T12:28:20.086Z,57.57
2019-01-25T12:30:30.463Z,39.03
2019-01-25T12:32:37.362Z,37.70
2019-01-25T12:34:42.802Z,47.87
2019-01-25T12:36:47.218Z,45.60
2019-01-25T12:38:51.682Z,14.00
2019-01-25T12:40:56.102Z,27.67
2019-01-25T12:43:00.526Z,17.30
2019-01-25T12:45:06.451Z,25.00
2019-01-25T12:47:11.554Z,46.83
2019-01-25T12:49:15.925Z,19.90
2019-01-25T12:51:26.539Z,33.83
2019-01-25T12:53:31.688Z,50.00
2019-01-25T12:55:36.157Z,30.80
2019-01-25T12:57:40.512Z,43.00
2019-01-25T12:59:44.914Z,32.50
2019-01-25T13:01:49.442Z,39.87
2019-01-25T13:03:53.919Z,32.77
2019-01-25T13:05:58.421Z,50.50
2019-01-25T13:08:02.895Z,32.43
2019-01-25T13:10:12.026Z,38.77
2019-01-25T13:12:16.498Z,30.33
2019-01-25T13:14:20.934Z,38.03
2019-01-25T13:16:25.381Z,36.00
2019-01-25T13:18:36.096Z,42.07
2019-01-25T13:20:40.639Z,58.60
2019-01-25T13:22:45.085Z,44.73
2019-01-25T13:24:49.503Z,40.43
2019-01-25T13:26:53.985Z,43.13
2019-01-25T13:28:58.498Z,20.73
2019-01-25T13:31:03.700Z,44.33
2019-01-25T13:33:08.336Z,34.43
2019-01-25T13:35:12.884Z,34.20
2019-01-25T13:37:17.295Z,39.27
2019-01-25T13:39:21.809Z,20.83
2019-01-25T13:41:29.203Z,33.20
2019-01-25T13:43:38.997Z,30.80
2019-01-25T13:45:42.342Z,41.50
2019-01-25T13:47:48.950Z,21.93
2019-01-25T13:49:56.762Z,27.80
2019-01-25T13:52:04.177Z,50.23
2019-01-25T13:54:10.459Z,52.00
2019-01-25T13:56:17.024Z,33.57
2019-01-25T13:58:21.454Z,22.97
2019-01-25T14:00:28.888Z,35.03
2019-01-25T14:02:34.190Z,12.83
2019-01-25T14:04:37.777Z,35.70
2019-01-25T14:06:42.242Z,42.60
2019-01-25T14:08:46.807Z,49.07
2019-01-25T14:10:51.256Z,37.67
2019-01-25T14:12:55.713Z,31.13
2019-01-25T14:15:00.279Z,45.17
2019-01-25T14:17:04.854Z,21.33
2019-01-25T14:19:09.423Z,41.80
2019-01-25T14:21:13.893Z,33.47
2019-01-25T14:23:18.509Z,29.13
2019-01-25T14:25:23.079Z,55.93
2019-01-25T14:27:27.738Z,36.63
2019-01-25T14:29:32.219Z,42.07
2019-01-25T14:31:36.804Z,46.57
2019-01-25T14:33:41.215Z,29.13
2019-01-25T14:35:45.650Z,15.60
2019-01-25T14:37:50.145Z,47.20
2019-01-25T14:39:54.549Z,39.43
2019-01-25T14:41:58.990Z,47.17
2019-01-25T14:44:03.505Z,40.60
2019-01-25T14:46:08.444Z,34.70
2019-01-25T14:48:12.972Z,43.20
2019-01-25T14:50:18.900Z,26.87
2019-01-25T14:52:23.329Z,47.37
2019-01-25T14:54:27.711Z,30.80
2019-01-25T14:56:32.154Z,36.20
2019-01-25T14:58:36.535Z,34.13
2019-01-25T15:00:40.954Z,26.60
2019-01-25T15:02:45.428Z,33.50
2019-01-25T15:04:49.849Z,42.10
2019-01-25T15:06:54.246Z,32.67
2019-01-25T15:08:58.671Z,44.07
2019-01-25T15:11:03.286Z,48.63
2019-01-25T15:13:08.234Z,41.50
2019-01-25T15:15:13.064Z,31.97
2019-01-25T15:17:17.415Z,36.93
2019-01-25T15:19:21.864Z,32.53
2019-01-25T15:21:26.205Z,42.10
2019-01-25T15:23:30.614Z,45.47
2019-01-25T15:25:35.043Z,33.47
2019-01-25T15:27:40.126Z,33.70
2019-01-25T15:29:44.470Z,41.83
2019-01-25T15:31:48.982Z,32.13
2019-01-25T15:33:53.348Z,32.20
2019-01-25T15:35:57.702Z,43.70
2019-01-25T15:38:22.510Z,43.10
2019-01-25T15:40:31.026Z,42.87
2019-01-25T15:42:35.707Z,44.30
2019-01-25T15:44:40.089Z,43.90
2019-01-25T15:46:45.259Z,35.93
2019-01-25T15:48:49.928Z,38.40
2019-01-25T15:50:54.418Z,23.77
2019-01-25T15:52:58.943Z,37.70
2019-01-25T15:55:04.112Z,22.77
2019-01-25T15:57:08.799Z,24.83
2019-01-25T15:59:13.207Z,38.67
2019-01-25T16:01:17.783Z,33.50
2019-01-25T16:03:22.235Z,37.67
2019-01-25T16:05:26.730Z,31.50
2019-01-25T16:07:31.190Z,35.20
2019-01-25T16:09:35.562Z,27.27
2019-01-25T16:11:40.051Z,32.87
2019-01-25T16:13:44.567Z,18.87
2019-01-25T16:15:50.174Z,28.77
2019-01-25T16:17:54.680Z,36.50
2019-01-25T16:19:59.206Z,27.33
2019-01-25T16:22:06.694Z,36.00
2019-01-25T16:24:11.164Z,18.97
2019-01-25T16:26:15.581Z,33.47
2019-01-25T16:28:21.106Z,26.33
2019-01-25T16:30:28.571Z,34.23
2019-01-25T16:32:33.034Z,17.57
2019-01-25T16:34:37.453Z,22.13
2019-01-25T16:36:41.832Z,32.80
2019-01-25T16:38:46.349Z,29.80
2019-01-25T16:40:50.751Z,24.53
2019-01-25T16:42:55.174Z,30.60
2019-01-25T16:44:59.678Z,33.53
2019-01-25T16:47:04.135Z,33.17
2019-01-25T16:49:08.549Z,26.03
2019-01-25T16:51:13.047Z,28.40
2019-01-25T16:53:17.431Z,30.53
2019-01-25T16:55:21.945Z,30.47
2019-01-25T16:57:26.521Z,41.50
2019-01-25T16:59:30.909Z,30.87
2019-01-25T17:01:35.374Z,39.03
2019-01-25T17:03:39.818Z,47.40
2019-01-25T17:05:44.271Z,12.93
2019-01-25T17:07:48.629Z,33.77
2019-01-25T17:09:53.069Z,25.87
2019-01-25T17:11:57.459Z,33.97
2019-01-25T17:14:01.947Z,37.30
2019-01-25T17:16:06.439Z,28.30
2019-01-25T17:18:11.193Z,41.13
2019-01-25T17:20:19.129Z,30.37
2019-01-25T17:22:21.365Z,45.47
2019-01-25T17:24:26.691Z,31.17
2019-01-25T17:26:31.123Z,34.90
2019-01-25T17:28:35.515Z,35.33
2019-01-25T17:30:40.485Z,40.43
2019-01-25T17:32:44.890Z,32.00
2019-01-25T17:34:49.336Z,37.70
2019-01-25T17:36:53.735Z,40.70
2019-01-25T17:38:58.126Z,38.53
2019-01-25T17:41:02.603Z,42.60
2019-01-25T17:43:07.032Z,38.23
2019-01-25T17:45:11.546Z,29.70
2019-01-25T17:47:16.209Z,35.43
2019-01-25T17:49:20.589Z,41.77
2019-01-25T17:51:24.953Z,35.07
2019-01-25T17:53:29.368Z,39.37
2019-01-25T17:55:33.866Z,34.70
2019-01-25T17:57:38.264Z,36.90
2019-01-25T17:59:42.695Z,34.13
2019-01-25T18:01:47.061Z,35.10
2019-01-25T18:03:51.539Z,20.93
2019-01-25T18:05:55.946Z,37.83
2019-01-25T18:08:00.393Z,27.33
2019-01-25T18:10:05.997Z,42.83
2019-01-25T18:12:10.467Z,37.40
2019-01-25T18:14:14.870Z,24.97
2019-01-25T18:16:19.343Z,35.53
2019-01-25T18:18:23.738Z,43.13
2019-01-25T18:20:28.209Z,38.87
2019-01-25T18:22:32.934Z,39.27
2019-01-25T18:24:37.323Z,24.50
2019-01-25T18:26:41.746Z,30.60
2019-01-25T18:28:55.107Z,36.57
2019-01-25T18:31:04.120Z,13.23
2019-01-25T18:33:08.570Z,14.53
2019-01-25T18:35:13.110Z,31.07
2019-01-25T18:37:17.560Z,34.63
2019-01-25T18:39:21.995Z,28.53
2019-01-25T18:41:26.406Z,17.20
2019-01-25T18:43:30.917Z,37.03
2019-01-25T18:45:35.355Z,33.57
2019-01-25T18:47:39.743Z,12.93
2019-01-25T18:49:44.954Z,28.17
2019-01-25T18:51:49.345Z,10.93
2019-01-25T18:53:54.759Z,36.23
2019-01-25T18:55:59.191Z,25.43
2019-01-25T18:58:03.691Z,21.17
2019-01-25T19:00:10.938Z,21.50
2019-01-25T19:02:15.314Z,18.20
2019-01-25T19:04:19.713Z,11.10
2019-01-25T19:06:24.214Z,17.77
2019-01-25T19:08:28.592Z,7.87
2019-01-25T19:10:34.367Z,9.40
2019-01-25T19:12:38.833Z,15.50
2019-01-25T19:14:43.940Z,21.50
2019-01-25T19:16:47.844Z,17.83
2019-01-25T19:18:52.213Z,17.57
2019-01-25T19:20:57.189Z,21.40
2019-01-25T19:23:01.677Z,21.47
2019-01-25T19:25:06.690Z,14.53
2019-01-25T19:27:11.121Z,11.87
2019-01-25T19:29:15.747Z,2.67
2019-01-25T19:31:20.164Z,11.63
2019-01-25T19:33:24.718Z,9.03
2019-01-25T19:35:29.186Z,21.00
2019-01-25T19:37:33.639Z,5.20
2019-01-25T19:39:38.043Z,6.73
2019-01-25T19:41:42.437Z,5.97
2019-01-25T19:43:46.911Z,11.87
2019-01-25T19:45:51.707Z,8.33
2019-01-25T19:47:56.194Z,4.60
2019-01-25T19:50:01.311Z,16.77
2019-01-25T19:52:05.776Z,6.37
2019-01-25T19:54:10.275Z,6.50
2019-01-25T19:56:14.707Z,14.03
2019-01-25T19:58:19.775Z,5.90
2019-01-25T20:00:30.133Z,8.60
2019-01-25T20:02:34.545Z,6.33
2019-01-25T20:04:39.066Z,5.90
2019-01-25T20:06:43.437Z,6.07
2019-01-25T20:08:47.817Z,5.60
2019-01-25T20:10:52.325Z,4.43
2019-01-25T20:12:56.913Z,5.40
2019-01-25T20:15:02.002Z,8.13
2019-01-25T20:17:06.454Z,6.90
2019-01-25T20:19:10.859Z,7.40
2019-01-25T20:21:15.379Z,7.03
2019-01-25T20:23:19.875Z,3.90
2019-01-25T20:25:24.410Z,10.17
2019-01-25T20:27:28.902Z,5.43
2019-01-25T20:29:33.542Z,9.90
2019-01-25T20:31:37.989Z,4.93
2019-01-25T20:33:43.295Z,7.70
2019-01-25T20:35:47.651Z,4.97
2019-01-25T20:37:52.110Z,9.90
2019-01-25T20:39:56.439Z,6.47
2019-01-25T20:42:00.947Z,1.97
2019-01-25T20:44:06.162Z,8.27
2019-01-25T20:46:10.651Z,7.77
2019-01-25T20:48:15.067Z,9.27
2019-01-25T20:50:22.197Z,1.90
2019-01-25T20:52:26.598Z,6.07
2019-01-25T20:54:31.066Z,7.47
2019-01-25T20:56:35.513Z,6.20
2019-01-25T20:58:40.673Z,2.87
2019-01-25T21:00:45.206Z,6.07
2019-01-25T21:02:49.688Z,13.23
2019-01-25T21:04:54.038Z,6.30
2019-01-25T21:06:58.610Z,2.93
2019-01-25T21:09:03.081Z,2.80
2019-01-25T21:11:08.370Z,7.07
2019-01-25T21:13:12.867Z,5.30
2019-01-25T21:15:18.514Z,8.67
2019-01-25T21:17:22.902Z,5.17
2019-01-25T21:19:27.350Z,3.63
2019-01-25T21:21:31.809Z,4.43
2019-01-25T21:23:36.419Z,4.77
2019-01-25T21:25:41.818Z,5.73
2019-01-25T21:27:46.282Z,4.50
2019-01-25T21:29:50.694Z,9.20
2019-01-25T21:31:55.088Z,2.63
2019-01-25T21:33:59.501Z,10.70
2019-01-25T21:36:04.097Z,3.60
2019-01-25T21:38:09.358Z,6.47
2019-01-25T21:40:16.020Z,3.13
2019-01-25T21:42:20.448Z,4.47
2019-01-25T21:44:24.789Z,4.07
2019-01-25T21:46:29.263Z,5.60
2019-01-25T21:48:33.743Z,6.30
2019-01-25T21:50:40.383Z,2.70
2019-01-25T21:52:44.886Z,3.40
2019-01-25T21:54:49.407Z,3.00
2019-01-25T21:56:53.759Z,7.40
2019-01-25T21:58:58.094Z,4.13
2019-01-25T22:01:02.846Z,3.83
2019-01-25T22:03:07.336Z,3.03
2019-01-25T22:05:11.850Z,5.93
2019-01-25T22:07:16.313Z,4.07
2019-01-25T22:09:20.671Z,5.57
2019-01-25T22:11:25.111Z,4.77
2019-01-25T22:13:30.473Z,7.63
2019-01-25T22:15:34.934Z,6.77
2019-01-25T22:17:40.050Z,3.97
2019-01-25T22:19:44.773Z,2.83
2019-01-25T22:21:49.135Z,4.67
2019-01-25T22:23:53.602Z,4.73
2019-01-25T22:25:58.360Z,6.37
2019-01-25T22:28:02.866Z,4.30
2019-01-25T22:30:09.440Z,3.43
2019-01-25T22:32:13.832Z,3.20
2019-01-25T22:34:18.245Z,4.17
2019-01-25T22:36:22.625Z,4.87
2019-01-25T22:38:27.104Z,4.07
2019-01-25T22:40:32.600Z,5.07
2019-01-25T22:42:37.072Z,7.37
2019-01-25T22:44:41.543Z,5.50
2019-01-25T22:46:46.084Z,3.63
2019-01-25T22:48:50.462Z,3.47
2019-01-25T22:50:54.951Z,4.97
2019-01-25T22:52:59.400Z,7.97
2019-01-25T22:55:03.919Z,5.37
2019-01-25T22:57:08.339Z,3.63
2019-01-25T22:59:12.702Z,5.10
2019-01-25T23:01:22.377Z,6.40
2019-01-25T23:03:39.022Z,3.80
2019-01-25T23:05:56.023Z,3.00
2019-01-25T23:08:00.456Z,3.40
2019-01-25T23:10:12.614Z,3.20
2019-01-25T23:12:17.098Z,2.73
2019-01-25T23:14:21.467Z,5.00
2019-01-25T23:16:25.897Z,4.63
2019-01-25T23:18:30.351Z,5.00
2019-01-25T23:20:34.805Z,4.63
2019-01-25T23:22:39.262Z,3.90
2019-01-25T23:24:43.784Z,2.43
2019-01-25T23:26:48.471Z,5.43
2019-01-25T23:28:54.157Z,1.83
2019-01-25T23:30:58.556Z,7.80
2019-01-25T23:33:02.988Z,9.07
2019-01-25T23:35:07.404Z,7.03
2019-01-25T23:37:18.180Z,6.67
2019-01-25T23:39:22.613Z,7.33
2019-01-25T23:41:27.036Z,7.20
2019-01-25T23:43:31.458Z,3.70
2019-01-25T23:45:35.888Z,8.00
2019-01-25T23:47:40.290Z,5.90
2019-01-25T23:49:44.756Z,7.10
2019-01-25T23:51:49.230Z,3.70
2019-01-25T23:53:53.639Z,4.57
2019-01-25T23:55:58.705Z,5.03
2019-01-25T23:58:03.065Z,9.00
